North Pole, AK

5:58 PM AKDT on September 29, 2016 (GMT -0800)
Repp and Pool St | | Change Station

Elev 472 ft 64.79 °N, 147.33 °W | Updated 60 seconds ago

Overcast
Overcast
47.8 °F
Feels Like 48 °F
N
0.0
Wind Variable Wind from NNW
Gusts 0.0 mph

Today
High -- | Low -- °F
--% Chance of Precip.
Yesterday
High -- | Low -- °F
Precip. -- in
Pressure 30.58 in
Visibility 10.0 miles
Clouds Scattered Clouds 3400 ft
Overcast 4400 ft
Windchill 48 °F
Dew Point 38 °F
Humidity 69%
Rainfall 0.00 in
Snow Depth Not available.
7:55 AM 7:22 PM
Waning Crescent, 1% visible
METAR PAFB 300058Z 24008KT 10SM SCT034 OVC044 10/02 A3056 RMK AO2A SLP354 T00990022
Pressure 30.58 in
Visibility 10.0 miles
Clouds Scattered Clouds 3400 ft
Overcast 4400 ft
Windchill 48 °F
Dew Point 38 °F
Humidity 69%
Rainfall 0.00 in
Snow Depth Not available.
7:55 AM 7:22 PM
Waning Crescent, 1% visible
METAR PAFB 300058Z 24008KT 10SM SCT034 OVC044 10/02 A3056 RMK AO2A SLP354 T00990022

10-Day Weather Forecast

Almanac

Astronomy

Sep. 29, 2016 Rise Set
Actual Time
Civil Twilight
Nautical Twilight
Astronomical Twilight
Moon
Length of Visible Light
Length of Day
Tomorrow will be .
, % of the Moon is Illuminated

Today's Extremes

State Highs State Lows

Community

WunderPhotos

Upload Photos

1,942,628 photos uploaded!

WunderBlog® & News

Nearby

Air Quality

  Air Quality AQ Index Pollutant
Not available.

Snow Depth

Station Depth Elevation

Earthquake Activity

City Distance Mag. Time & Date
Minimum magnitude displayed is 2.5.

Coastal Water Temperatures

Place Temperature

Stations

Nearby Weather Stations

Station Location Temp. Windchill Dew Point Humidity Wind Precip. Elev Updated Type
                   

Watches & Warnings

There are currently no watches in effect.